createdAt,value
2022-12-03T07:53:01.199Z,31.95
2022-12-03T07:55:29.167Z,32.67
2022-12-03T07:57:57.196Z,33.08
2022-12-03T08:00:25.470Z,32.33
2022-12-03T08:02:53.476Z,33.05
2022-12-03T08:05:21.513Z,32.80
2022-12-03T08:07:49.599Z,31.02
2022-12-03T08:10:19.410Z,34.17
2022-12-03T08:12:47.863Z,31.38
2022-12-03T08:15:18.112Z,35.08
2022-12-03T08:17:48.277Z,31.77
2022-12-03T08:20:18.996Z,34.65
2022-12-03T08:22:51.129Z,32.22
2022-12-03T08:25:23.562Z,33.50
2022-12-03T08:27:53.081Z,32.55
2022-12-03T08:30:21.673Z,33.50
2022-12-03T08:32:50.309Z,31.92
2022-12-03T08:35:24.218Z,32.05
2022-12-03T08:38:02.238Z,31.80
2022-12-03T08:40:36.568Z,32.45
2022-12-03T08:43:15.701Z,32.40
2022-12-03T08:45:44.272Z,32.88
2022-12-03T08:48:34.850Z,35.65
2022-12-03T08:51:10.428Z,33.20
2022-12-03T08:53:43.180Z,33.75
2022-12-03T08:58:49.432Z,30.30
2022-12-03T09:01:32.004Z,31.58
2022-12-03T09:04:16.431Z,30.08
2022-12-03T09:06:44.493Z,33.50
2022-12-03T09:09:12.667Z,32.78
2022-12-03T09:11:44.585Z,31.42
2022-12-03T09:14:18.931Z,30.93
2022-12-03T09:16:48.075Z,29.65
2022-12-03T09:19:16.618Z,30.42
2022-12-03T09:21:44.575Z,31.25
2022-12-03T09:24:12.868Z,30.55
2022-12-03T09:26:42.336Z,30.58
2022-12-03T09:29:12.286Z,29.75
2022-12-03T09:31:41.585Z,31.13
2022-12-03T09:34:10.984Z,28.63
2022-12-03T09:36:39.121Z,30.33
2022-12-03T09:39:07.165Z,29.42
2022-12-03T09:41:35.269Z,29.02
2022-12-03T09:44:05.751Z,30.90
2022-12-03T09:46:35.980Z,29.35
2022-12-03T09:49:10.843Z,30.55
2022-12-03T09:51:42.388Z,30.02
2022-12-03T09:54:16.614Z,29.95
2022-12-03T09:56:44.672Z,29.65
2022-12-03T09:59:16.658Z,29.90
2022-12-03T10:01:45.204Z,27.40
2022-12-03T10:04:13.532Z,27.23
2022-12-03T10:06:45.729Z,27.63
2022-12-03T10:09:17.431Z,27.52
2022-12-03T10:11:45.768Z,29.58
2022-12-03T10:14:18.694Z,27.35
2022-12-03T10:16:47.463Z,28.35
2022-12-03T10:19:21.212Z,30.38
2022-12-03T10:21:49.261Z,28.30
2022-12-03T10:24:26.767Z,28.17
2022-12-03T10:26:56.995Z,27.48
2022-12-03T10:29:33.127Z,28.23
2022-12-03T10:32:03.653Z,27.48
2022-12-03T10:34:33.554Z,26.30
2022-12-03T10:37:28.303Z,25.85
2022-12-03T10:39:59.616Z,26.70
2022-12-03T10:42:29.654Z,25.92
2022-12-03T10:45:30.571Z,28.10
2022-12-03T10:48:08.369Z,24.45
2022-12-03T10:50:43.076Z,26.35
2022-12-03T10:53:12.624Z,26.25
2022-12-03T10:56:00.837Z,25.23
2022-12-03T10:58:46.289Z,23.90
2022-12-03T11:04:19.089Z,23.27
2022-12-03T11:06:47.261Z,23.65
2022-12-03T11:09:19.795Z,24.50
2022-12-03T11:11:48.124Z,24.02
2022-12-03T11:14:55.088Z,22.05
2022-12-03T11:17:44.329Z,22.58
2022-12-03T11:20:35.379Z,22.90
2022-12-03T11:23:04.938Z,22.27
2022-12-03T11:25:47.915Z,21.75
2022-12-03T11:31:03.368Z,20.65
2022-12-03T11:33:33.481Z,21.73
2022-12-03T11:36:13.280Z,21.88
2022-12-03T11:38:52.637Z,20.85
2022-12-03T11:41:23.809Z,21.77
2022-12-03T11:44:20.390Z,20.95
2022-12-03T11:46:49.651Z,22.15
2022-12-03T11:49:26.913Z,20.35
2022-12-03T11:51:54.941Z,19.42
2022-12-03T11:54:25.548Z,21.38
2022-12-03T11:56:54.573Z,21.10
2022-12-03T11:59:22.686Z,21.90
2022-12-03T12:01:50.653Z,23.05
2022-12-03T12:04:31.579Z,20.65
2022-12-03T12:06:59.800Z,19.67
2022-12-03T12:09:52.168Z,20.92
2022-12-03T12:12:31.478Z,19.08
2022-12-03T12:15:00.425Z,19.88
2022-12-03T12:17:33.539Z,22.45
2022-12-03T12:20:27.825Z,20.55
2022-12-03T12:22:56.696Z,19.23
2022-12-03T12:25:40.303Z,19.98
2022-12-03T12:28:09.454Z,19.88
2022-12-03T12:30:37.471Z,19.85
2022-12-03T12:33:23.343Z,20.95
2022-12-03T12:35:52.341Z,20.42
2022-12-03T12:38:22.113Z,19.80
2022-12-03T12:40:52.339Z,21.17
2022-12-03T12:43:24.851Z,21.45
2022-12-03T12:48:26.395Z,20.95
2022-12-03T12:51:07.194Z,20.20
2022-12-03T12:53:37.007Z,21.20
2022-12-03T12:56:14.520Z,20.48
2022-12-03T12:58:43.467Z,21.88
2022-12-03T13:01:21.169Z,19.67
2022-12-03T13:03:51.747Z,21.45
2022-12-03T13:06:24.870Z,18.98
2022-12-03T13:08:53.705Z,20.83
2022-12-03T13:11:35.537Z,20.52
2022-12-03T13:14:08.441Z,19.48
2022-12-03T13:16:36.735Z,19.63
2022-12-03T13:19:17.820Z,20.25
2022-12-03T13:21:46.170Z,20.67
2022-12-03T13:24:30.086Z,19.40
2022-12-03T13:27:00.541Z,20.02
2022-12-03T13:29:29.163Z,18.92
2022-12-03T13:31:59.404Z,21.38
2022-12-03T13:34:29.367Z,20.52
2022-12-03T13:36:58.723Z,19.25
2022-12-03T13:39:33.030Z,20.65
2022-12-03T13:42:34.431Z,19.67
2022-12-03T13:45:03.883Z,20.45
2022-12-03T13:47:33.261Z,20.77
2022-12-03T13:50:04.732Z,18.00
2022-12-03T13:52:35.839Z,19.25
2022-12-03T13:55:04.736Z,19.55
2022-12-03T13:57:34.160Z,18.38
2022-12-03T14:00:02.138Z,19.00
2022-12-03T14:02:30.195Z,18.77
2022-12-03T14:05:00.417Z,21.20
2022-12-03T14:07:28.998Z,18.80
2022-12-03T14:09:57.356Z,19.63
2022-12-03T14:12:29.098Z,18.77
2022-12-03T14:14:58.607Z,18.70
2022-12-03T14:17:26.639Z,17.92
2022-12-03T14:19:54.981Z,18.30
2022-12-03T14:22:25.448Z,18.52
2022-12-03T14:24:54.077Z,20.17
2022-12-03T14:27:22.308Z,19.40
2022-12-03T14:29:50.443Z,18.85
2022-12-03T14:32:19.845Z,18.60
2022-12-03T14:34:47.848Z,18.08
2022-12-03T14:37:15.945Z,19.15
2022-12-03T14:39:43.915Z,20.02
2022-12-03T14:42:14.494Z,17.55
2022-12-03T14:44:43.254Z,17.45
2022-12-03T14:47:11.758Z,19.45
2022-12-03T14:49:41.197Z,17.80
2022-12-03T14:52:13.085Z,17.73
2022-12-03T14:54:42.776Z,19.97
2022-12-03T14:57:12.777Z,18.27
2022-12-03T14:59:43.740Z,17.67
2022-12-03T15:02:12.987Z,17.52
2022-12-03T15:04:42.857Z,19.33
2022-12-03T15:07:11.775Z,17.25
2022-12-03T15:09:41.949Z,17.77
2022-12-03T15:12:09.971Z,18.60
2022-12-03T15:14:43.007Z,19.33
2022-12-03T15:17:11.036Z,17.17
2022-12-03T15:19:41.647Z,18.60
2022-12-03T15:22:11.070Z,18.33
2022-12-03T15:24:39.099Z,19.23
2022-12-03T15:27:07.106Z,18.33
2022-12-03T15:29:35.089Z,18.60
2022-12-03T15:32:03.638Z,16.95
2022-12-03T15:34:31.642Z,18.58
2022-12-03T15:36:59.838Z,18.42
2022-12-03T15:39:30.059Z,17.02
2022-12-03T15:41:59.449Z,17.75
2022-12-03T15:44:27.469Z,17.80
2022-12-03T15:46:58.147Z,19.27
2022-12-03T15:49:26.223Z,17.67
2022-12-03T15:51:54.619Z,20.38
2022-12-03T15:54:22.680Z,19.60
2022-12-03T15:56:56.961Z,19.30
2022-12-03T15:59:25.907Z,17.98
2022-12-03T16:01:53.966Z,19.15
2022-12-03T16:04:22.373Z,17.38
2022-12-03T16:06:50.776Z,18.73
2022-12-03T16:09:23.657Z,18.73
2022-12-03T16:11:56.366Z,19.20
2022-12-03T16:14:24.307Z,19.25
2022-12-03T16:16:52.606Z,18.23
2022-12-03T16:19:20.607Z,18.63
2022-12-03T16:21:51.455Z,18.60
2022-12-03T16:24:19.684Z,20.27
2022-12-03T16:52:07.916Z,20.38
2022-12-03T16:54:36.088Z,23.95
2022-12-03T16:57:05.920Z,21.05
2022-12-03T16:59:34.147Z,21.90
2022-12-03T17:02:03.640Z,22.88
2022-12-03T17:04:32.229Z,21.20
2022-12-03T17:07:00.346Z,22.23
2022-12-03T17:09:28.780Z,23.77
2022-12-03T17:11:56.918Z,22.23
2022-12-03T17:14:28.638Z,22.80
2022-12-03T17:17:01.873Z,22.90
2022-12-03T17:19:31.626Z,24.63
2022-12-03T17:21:59.975Z,24.90
2022-12-03T17:24:28.405Z,23.50
2022-12-03T17:26:56.838Z,22.85
2022-12-03T17:29:25.005Z,24.42
2022-12-03T17:31:53.134Z,25.50
2022-12-03T17:34:21.328Z,26.00
2022-12-03T17:36:50.789Z,25.00
2022-12-03T17:39:18.989Z,26.50
2022-12-03T17:41:47.422Z,26.23
2022-12-03T17:44:20.813Z,26.02
2022-12-03T17:46:49.526Z,27.33
2022-12-03T17:49:17.677Z,26.17
2022-12-03T17:51:45.800Z,26.63
2022-12-03T17:54:15.396Z,26.70
2022-12-03T17:56:44.200Z,26.67
2022-12-03T17:59:13.443Z,27.52
2022-12-03T18:01:41.757Z,25.10
2022-12-03T18:04:13.008Z,26.20
2022-12-03T18:06:41.261Z,27.42
2022-12-03T18:09:09.436Z,27.27
2022-12-03T18:11:39.442Z,28.48
2022-12-03T18:14:07.687Z,26.70
2022-12-03T18:16:36.344Z,27.92
2022-12-03T18:19:06.408Z,28.50
2022-12-03T18:21:37.106Z,28.58
2022-12-03T18:24:05.900Z,27.88
2022-12-03T18:26:34.416Z,30.75
2022-12-03T18:29:05.879Z,31.58
2022-12-03T18:31:34.933Z,30.35
2022-12-03T18:34:03.136Z,31.10
2022-12-03T18:36:36.376Z,28.50
2022-12-03T18:39:09.249Z,30.77
2022-12-03T18:44:10.839Z,31.02
2022-12-03T18:46:53.574Z,33.83
2022-12-03T18:49:23.500Z,32.78
2022-12-03T18:51:58.724Z,32.70
2022-12-03T18:54:27.680Z,31.88
2022-12-03T18:56:55.939Z,30.95
2022-12-03T18:59:25.343Z,31.13
2022-12-03T19:01:53.911Z,32.13
2022-12-03T19:04:22.206Z,31.30
2022-12-03T19:06:50.568Z,31.42
2022-12-03T19:09:19.392Z,32.45
2022-12-03T19:11:48.073Z,32.67
2022-12-03T19:14:16.868Z,31.55
2022-12-03T19:16:46.910Z,33.03
2022-12-03T19:19:15.409Z,33.85
2022-12-03T19:21:46.282Z,32.35
2022-12-03T19:24:30.363Z,30.55
2022-12-03T19:26:58.924Z,31.30
2022-12-03T19:29:27.335Z,32.53
2022-12-03T19:31:57.161Z,32.40
2022-12-03T19:34:25.460Z,33.05
2022-12-03T19:36:53.930Z,31.45
2022-12-03T19:39:22.476Z,31.60
2022-12-03T19:41:51.010Z,32.05
2022-12-03T19:44:20.590Z,30.90
2022-12-03T19:46:51.367Z,32.15
2022-12-03T19:49:23.610Z,30.73
2022-12-03T19:51:53.275Z,31.33
2022-12-03T19:54:22.276Z,29.55
2022-12-03T19:56:50.819Z,31.65
2022-12-03T19:59:19.546Z,32.42
2022-12-03T20:01:48.144Z,32.88
2022-12-03T20:04:16.809Z,29.88
2022-12-03T20:06:48.132Z,31.58
2022-12-03T20:09:18.084Z,32.78
2022-12-03T20:11:47.215Z,31.15
2022-12-03T20:14:18.009Z,32.03
2022-12-03T20:16:46.467Z,32.15
2022-12-03T20:19:16.854Z,32.92
2022-12-03T20:21:47.005Z,32.50
2022-12-03T20:24:18.178Z,31.55
2022-12-03T20:26:47.839Z,32.28
2022-12-03T20:29:16.417Z,34.15
2022-12-03T20:31:45.057Z,31.70
2022-12-03T20:34:14.018Z,34.28
2022-12-03T20:36:43.412Z,33.30
2022-12-03T20:39:14.647Z,32.10
2022-12-03T20:41:42.768Z,33.10
2022-12-03T20:44:11.410Z,32.50
2022-12-03T20:46:39.981Z,33.00
2022-12-03T20:49:08.836Z,33.97
2022-12-03T20:51:37.794Z,32.13
2022-12-03T20:54:06.594Z,32.88
2022-12-03T20:56:39.934Z,33.65
2022-12-03T20:59:12.636Z,33.05
2022-12-03T21:01:41.180Z,32.10
2022-12-03T21:04:11.289Z,34.53
2022-12-03T21:06:42.657Z,33.53
2022-12-03T21:09:12.126Z,33.05
2022-12-03T21:11:43.095Z,33.75
2022-12-03T21:14:12.806Z,32.70
2022-12-03T21:19:31.036Z,32.70
2022-12-03T21:21:59.408Z,34.15
2022-12-03T21:24:28.028Z,34.08
2022-12-03T21:26:57.586Z,30.90
2022-12-03T21:29:26.107Z,33.78
2022-12-03T21:31:54.393Z,33.88
2022-12-03T21:34:22.846Z,34.15
2022-12-03T21:36:51.114Z,34.70
2022-12-03T21:39:23.484Z,34.08
2022-12-03T21:42:34.223Z,33.38
2022-12-03T21:44:42.665Z,33.67
2022-12-03T21:47:14.251Z,32.13
2022-12-03T21:49:42.898Z,34.67
2022-12-03T21:52:12.196Z,34.75
2022-12-03T21:54:40.839Z,35.63
2022-12-03T21:57:09.741Z,33.25
2022-12-03T21:59:38.251Z,32.78
2022-12-03T22:02:08.379Z,35.30
2022-12-03T22:04:36.507Z,34.40
2022-12-03T22:07:06.052Z,35.10
2022-12-03T22:09:34.895Z,34.13
2022-12-03T22:12:03.142Z,34.88
2022-12-03T22:14:32.882Z,33.33
2022-12-03T22:17:00.989Z,33.30
2022-12-03T22:19:33.235Z,35.10
2022-12-03T22:22:01.450Z,34.13
2022-12-03T22:24:29.531Z,32.78
2022-12-03T22:26:57.581Z,33.10
2022-12-03T22:29:25.651Z,35.47
2022-12-03T22:31:53.730Z,34.35
2022-12-03T22:34:21.751Z,33.80
2022-12-03T22:36:51.116Z,34.13
2022-12-03T22:39:19.556Z,36.45
2022-12-03T22:41:47.643Z,32.75
2022-12-03T22:44:15.672Z,34.78
2022-12-03T22:46:43.766Z,34.42
2022-12-03T22:49:13.723Z,35.58
2022-12-03T22:51:41.881Z,32.90
2022-12-03T22:54:11.779Z,35.00
2022-12-03T22:56:39.829Z,34.88
2022-12-03T22:59:08.089Z,35.58
2022-12-03T23:01:38.400Z,33.58
2022-12-03T23:04:07.996Z,35.13
2022-12-03T23:06:37.903Z,34.22
2022-12-03T23:09:07.171Z,35.50
2022-12-03T23:11:37.381Z,33.97
2022-12-03T23:14:05.836Z,35.03
2022-12-03T23:16:34.392Z,33.00
2022-12-03T23:19:03.659Z,33.95
2022-12-03T23:21:34.193Z,31.05
2022-12-03T23:24:03.619Z,34.63
2022-12-03T23:26:34.395Z,32.40
2022-12-03T23:29:04.728Z,32.28
2022-12-03T23:31:34.355Z,33.70
2022-12-03T23:34:02.783Z,31.48
2022-12-03T23:36:33.924Z,32.97
2022-12-03T23:39:01.919Z,31.45
2022-12-03T23:41:30.022Z,33.20
2022-12-03T23:43:58.111Z,34.05
2022-12-03T23:46:28.575Z,32.78
2022-12-03T23:48:58.610Z,32.47
2022-12-03T23:51:27.107Z,33.58
2022-12-03T23:53:56.255Z,32.17
2022-12-03T23:56:27.093Z,32.47
2022-12-03T23:58:55.074Z,32.83
